createdAt,value
2018-08-17T00:00:41.873Z,3.33
2018-08-17T00:03:10.413Z,3.97
2018-08-17T00:05:38.902Z,5.90
2018-08-17T00:08:07.414Z,3.40
2018-08-17T00:10:35.956Z,3.10
2018-08-17T00:13:04.529Z,3.40
2018-08-17T00:15:33.002Z,4.57
2018-08-17T00:18:01.534Z,3.60
2018-08-17T00:20:30.023Z,3.80
2018-08-17T00:22:58.529Z,3.23
2018-08-17T00:25:27.041Z,3.10
2018-08-17T00:27:55.509Z,3.53
2018-08-17T00:30:23.999Z,3.57
2018-08-17T00:32:52.520Z,4.30
2018-08-17T00:35:20.975Z,3.20
2018-08-17T00:37:49.435Z,3.77
2018-08-17T00:40:17.927Z,3.83
2018-08-17T00:42:46.514Z,3.40
2018-08-17T00:45:14.949Z,3.87
2018-08-17T00:47:43.445Z,3.60
2018-08-17T00:50:11.899Z,3.03
2018-08-17T00:52:40.437Z,3.60
2018-08-17T00:55:08.963Z,4.03
2018-08-17T00:57:37.433Z,3.90
2018-08-17T01:00:06.211Z,5.50
2018-08-17T01:02:34.685Z,3.37
2018-08-17T01:05:03.233Z,3.70
2018-08-17T01:07:31.778Z,3.47
2018-08-17T01:10:00.238Z,3.73
2018-08-17T01:12:28.740Z,3.60
2018-08-17T01:14:57.258Z,4.00
2018-08-17T01:17:25.829Z,3.60
2018-08-17T01:19:54.312Z,4.03
2018-08-17T01:22:22.781Z,3.60
2018-08-17T01:24:51.246Z,4.17
2018-08-17T01:27:19.709Z,3.63
2018-08-17T01:29:48.194Z,3.40
2018-08-17T01:32:16.635Z,3.63
2018-08-17T01:34:45.128Z,3.63
2018-08-17T01:37:13.588Z,5.23
2018-08-17T01:39:42.042Z,3.77
2018-08-17T01:42:10.515Z,3.77
2018-08-17T01:44:39.085Z,4.60
2018-08-17T01:47:07.523Z,4.03
2018-08-17T01:49:36.015Z,4.57
2018-08-17T01:52:04.498Z,6.30
2018-08-17T01:54:33.029Z,3.50
2018-08-17T01:57:01.490Z,3.97
2018-08-17T01:59:30.019Z,5.00
2018-08-17T02:01:58.537Z,3.70
2018-08-17T02:04:27.076Z,3.90
2018-08-17T02:06:55.603Z,3.83
2018-08-17T02:09:24.165Z,3.70
2018-08-17T02:11:52.692Z,3.77
2018-08-17T02:14:21.185Z,3.40
2018-08-17T02:16:49.635Z,3.50
2018-08-17T02:19:18.143Z,3.87
2018-08-17T02:21:46.599Z,4.93
2018-08-17T02:24:15.096Z,3.93
2018-08-17T02:26:43.555Z,3.77
2018-08-17T02:29:12.033Z,5.67
2018-08-17T02:31:40.523Z,4.53
2018-08-17T02:34:09.021Z,6.17
2018-08-17T02:36:37.604Z,4.13
2018-08-17T02:39:06.881Z,3.90
2018-08-17T02:41:35.386Z,4.00
2018-08-17T02:44:03.959Z,3.97
2018-08-17T02:46:32.435Z,3.77
2018-08-17T02:49:00.916Z,5.53
2018-08-17T02:51:29.428Z,3.93
2018-08-17T02:53:57.929Z,4.63
2018-08-17T02:56:26.387Z,4.20
2018-08-17T02:58:54.866Z,3.77
2018-08-17T03:01:23.360Z,4.30
2018-08-17T03:03:51.871Z,4.07
2018-08-17T03:06:20.310Z,4.93
2018-08-17T03:08:48.774Z,3.50
2018-08-17T03:11:17.265Z,3.83
2018-08-17T03:13:45.777Z,3.90
2018-08-17T03:16:14.233Z,5.00
2018-08-17T03:18:42.687Z,4.10
2018-08-17T03:21:11.160Z,4.60
2018-08-17T03:23:39.657Z,4.10
2018-08-17T03:26:08.615Z,4.33
2018-08-17T03:28:37.082Z,4.17
2018-08-17T03:31:05.541Z,4.10
2018-08-17T03:33:34.066Z,4.30
2018-08-17T03:36:02.849Z,4.80
2018-08-17T03:38:31.895Z,4.60
2018-08-17T03:41:00.362Z,5.20
2018-08-17T03:43:28.868Z,5.43
2018-08-17T03:45:57.389Z,3.90
2018-08-17T03:48:25.861Z,4.37
2018-08-17T03:50:54.316Z,4.03
2018-08-17T03:53:22.822Z,4.00
2018-08-17T03:55:51.311Z,7.63
2018-08-17T03:58:19.818Z,5.23
2018-08-17T04:00:48.298Z,4.40
2018-08-17T04:03:16.781Z,3.83
2018-08-17T04:05:45.266Z,4.53
2018-08-17T04:08:13.735Z,4.20
2018-08-17T04:10:42.336Z,4.83
2018-08-17T04:13:11.109Z,3.70
2018-08-17T04:15:39.692Z,4.27
2018-08-17T04:18:08.921Z,3.97
2018-08-17T04:20:37.565Z,4.07
2018-08-17T04:23:06.434Z,5.13
2018-08-17T04:25:34.927Z,4.00
2018-08-17T04:28:03.408Z,4.37
2018-08-17T04:30:31.996Z,4.17
2018-08-17T04:33:00.686Z,3.97
2018-08-17T04:35:29.150Z,4.83
2018-08-17T04:37:57.677Z,4.80
2018-08-17T04:40:35.099Z,5.93
2018-08-17T04:43:07.098Z,6.47
2018-08-17T04:45:37.797Z,4.20
2018-08-17T04:48:07.548Z,5.10
2018-08-17T04:50:36.628Z,4.23
2018-08-17T04:53:05.649Z,5.03
2018-08-17T04:55:35.643Z,6.23
2018-08-17T04:58:05.590Z,4.57
2018-08-17T05:00:36.275Z,4.27
2018-08-17T05:03:06.333Z,4.23
2018-08-17T05:05:35.389Z,4.07
2018-08-17T05:08:04.445Z,4.03
2018-08-17T05:10:34.170Z,4.23
2018-08-17T05:13:03.340Z,3.87
2018-08-17T05:15:32.887Z,3.80
2018-08-17T05:18:01.362Z,4.43
2018-08-17T05:20:29.833Z,3.80
2018-08-17T05:22:58.241Z,4.00
2018-08-17T05:25:26.716Z,4.07
2018-08-17T05:27:55.213Z,4.80
2018-08-17T05:30:23.728Z,4.13
2018-08-17T05:32:52.140Z,4.07
2018-08-17T05:35:20.621Z,3.60
2018-08-17T05:37:49.164Z,4.37
2018-08-17T05:40:17.631Z,3.73
2018-08-17T05:42:46.538Z,4.03
2018-08-17T05:45:15.219Z,6.80
2018-08-17T05:47:45.366Z,3.97
2018-08-17T05:50:14.934Z,5.50
2018-08-17T05:52:46.194Z,6.77
2018-08-17T05:55:18.140Z,5.13
2018-08-17T05:57:47.714Z,3.37
2018-08-17T06:00:17.303Z,3.30
2018-08-17T06:02:48.301Z,4.63
2018-08-17T06:05:19.534Z,3.60
2018-08-17T06:07:48.863Z,4.47
2018-08-17T06:10:18.531Z,3.43
2018-08-17T06:12:48.431Z,4.23
2018-08-17T06:15:17.276Z,4.90
2018-08-17T06:17:47.190Z,3.27
2018-08-17T06:20:15.802Z,3.30
2018-08-17T06:22:45.241Z,3.57
2018-08-17T06:25:14.501Z,3.70
2018-08-17T06:27:43.262Z,3.20
2018-08-17T06:30:13.807Z,3.53
2018-08-17T06:32:42.665Z,6.97
2018-08-17T06:35:12.521Z,4.00
2018-08-17T06:37:41.933Z,3.63
2018-08-17T06:40:10.871Z,3.90
2018-08-17T06:42:39.423Z,3.90
2018-08-17T06:45:10.739Z,3.30
2018-08-17T06:47:39.421Z,3.17
2018-08-17T06:50:09.554Z,4.67
2018-08-17T06:52:38.629Z,4.10
2018-08-17T06:55:08.195Z,3.57
2018-08-17T06:57:36.759Z,4.00
2018-08-17T07:00:08.291Z,2.77
2018-08-17T07:02:36.790Z,2.47
2018-08-17T07:05:05.734Z,3.40
2018-08-17T07:07:34.186Z,5.80
2018-08-17T07:10:02.726Z,2.90
2018-08-17T07:12:31.227Z,2.20
2018-08-17T07:14:59.655Z,2.00
2018-08-17T07:17:28.214Z,3.67
2018-08-17T07:19:56.650Z,2.13
2018-08-17T07:22:25.165Z,6.27
2018-08-17T07:24:53.643Z,3.40
2018-08-17T07:27:22.100Z,2.33
2018-08-17T07:29:50.582Z,2.47
2018-08-17T07:32:19.085Z,2.57
2018-08-17T07:34:47.708Z,3.27
2018-08-17T07:37:16.186Z,4.43
2018-08-17T07:39:44.625Z,3.20
2018-08-17T07:42:13.142Z,3.10
2018-08-17T07:44:41.941Z,2.13
2018-08-17T07:47:10.490Z,2.05
2018-08-17T07:49:38.917Z,2.83
2018-08-17T07:52:07.453Z,2.15
2018-08-17T07:54:35.925Z,3.75
2018-08-17T07:57:04.434Z,2.52
2018-08-17T07:59:32.865Z,3.12
2018-08-17T08:02:01.431Z,4.08
2018-08-17T08:04:29.887Z,1.72
2018-08-17T08:06:58.445Z,2.40
2018-08-17T08:09:26.919Z,4.83
2018-08-17T08:11:55.383Z,2.17
2018-08-17T08:14:23.815Z,2.00
2018-08-17T08:16:52.301Z,3.50
2018-08-17T08:19:20.730Z,1.95
2018-08-17T08:21:50.279Z,3.62
2018-08-17T08:24:19.655Z,2.10
2018-08-17T08:26:48.525Z,2.67
2018-08-17T08:29:17.078Z,2.95
2018-08-17T08:31:45.522Z,3.22
2018-08-17T08:34:14.331Z,4.45
2018-08-17T08:36:42.803Z,3.75
2018-08-17T08:39:12.899Z,2.47
2018-08-17T08:41:41.424Z,2.75
2018-08-17T08:44:09.911Z,2.65
2018-08-17T08:46:38.919Z,1.80
2018-08-17T08:49:07.591Z,2.62
2018-08-17T08:51:36.189Z,2.17
2018-08-17T08:54:04.775Z,2.60
2018-08-17T08:56:33.203Z,2.92
2018-08-17T08:59:01.690Z,2.33
2018-08-17T09:01:30.118Z,4.03
2018-08-17T09:03:58.626Z,2.58
2018-08-17T09:06:27.187Z,3.45
2018-08-17T09:08:55.695Z,2.90
2018-08-17T09:11:24.143Z,3.65
2018-08-17T09:13:52.662Z,2.30
2018-08-17T09:16:21.182Z,2.87
2018-08-17T09:18:49.634Z,2.35
2018-08-17T09:21:18.090Z,2.83
2018-08-17T09:23:47.461Z,2.30
2018-08-17T09:26:16.222Z,1.95
2018-08-17T09:28:44.721Z,2.95
2018-08-17T09:31:13.160Z,2.50
2018-08-17T09:33:41.620Z,2.00
2018-08-17T09:36:10.192Z,1.92
2018-08-17T09:38:38.554Z,5.30
2018-08-17T09:41:07.156Z,2.60
2018-08-17T09:43:35.662Z,3.05
2018-08-17T09:46:04.166Z,2.00
2018-08-17T09:48:32.781Z,2.65
2018-08-17T09:51:01.213Z,2.08
2018-08-17T09:53:29.674Z,2.40
2018-08-17T09:55:58.118Z,1.90
2018-08-17T09:58:26.616Z,1.98
2018-08-17T10:03:05.273Z,2.70
2018-08-17T10:05:38.159Z,2.92
2018-08-17T10:08:11.941Z,7.08
2018-08-17T10:10:40.435Z,2.20
2018-08-17T10:13:08.903Z,2.45
2018-08-17T10:15:37.353Z,2.90
2018-08-17T10:18:05.849Z,2.70
2018-08-17T10:20:34.327Z,2.33
2018-08-17T10:23:06.791Z,3.65
2018-08-17T10:25:35.246Z,4.75
2018-08-17T10:28:03.720Z,2.45
2018-08-17T10:30:32.294Z,2.15
2018-08-17T10:33:01.174Z,2.05
2018-08-17T10:35:31.989Z,3.52
2018-08-17T10:38:02.545Z,2.85
2018-08-17T10:40:31.073Z,2.27
2018-08-17T10:43:01.503Z,2.67
2018-08-17T10:45:30.134Z,3.15
2018-08-17T10:47:58.883Z,1.87
2018-08-17T10:50:29.402Z,2.15
2018-08-17T10:52:59.249Z,2.27
2018-08-17T10:55:37.915Z,2.08
2018-08-17T10:58:06.860Z,1.80
2018-08-17T11:00:35.331Z,2.20
2018-08-17T11:03:03.989Z,1.98
2018-08-17T11:05:32.481Z,3.85
2018-08-17T11:08:00.945Z,2.98
2018-08-17T11:10:29.469Z,3.67
2018-08-17T11:12:57.952Z,2.75
2018-08-17T11:15:26.434Z,3.27
2018-08-17T11:17:55.098Z,3.05
2018-08-17T11:20:23.538Z,2.27
2018-08-17T11:22:52.014Z,1.85
2018-08-17T11:25:20.496Z,3.87
2018-08-17T11:27:50.552Z,1.85
2018-08-17T11:30:19.038Z,2.90
2018-08-17T11:32:47.543Z,1.65
2018-08-17T11:35:16.017Z,1.80
2018-08-17T11:37:44.478Z,2.15
2018-08-17T11:40:13.642Z,2.42
2018-08-17T11:42:47.432Z,1.77
2018-08-17T11:45:19.036Z,1.92
2018-08-17T11:47:47.953Z,2.62
2018-08-17T11:50:18.065Z,1.87
2018-08-17T11:53:04.780Z,1.70
2018-08-17T11:55:34.020Z,2.62
2018-08-17T11:58:02.502Z,1.80
2018-08-17T12:00:36.381Z,1.92
2018-08-17T12:03:06.393Z,1.70
2018-08-17T12:05:34.858Z,2.10
2018-08-17T12:08:03.503Z,1.75
2018-08-17T12:10:31.873Z,2.22
2018-08-17T12:13:05.603Z,1.80
2018-08-17T12:15:42.156Z,2.62
2018-08-17T12:18:11.281Z,2.33
2018-08-17T12:20:39.758Z,2.08
2018-08-17T12:23:08.858Z,2.10
2018-08-17T12:25:45.994Z,4.87
2018-08-17T12:28:14.515Z,1.50
2018-08-17T12:30:43.081Z,2.87
2018-08-17T12:33:12.476Z,2.65
2018-08-17T12:35:41.287Z,3.33
2018-08-17T12:38:13.346Z,2.83
2018-08-17T12:40:45.727Z,2.12
2018-08-17T12:43:15.610Z,3.05
2018-08-17T12:45:44.220Z,2.05
2018-08-17T12:48:13.790Z,1.70
2018-08-17T12:50:42.625Z,1.65
2018-08-17T12:53:11.138Z,2.50
2018-08-17T12:55:39.706Z,1.77
2018-08-17T12:58:09.045Z,2.95
2018-08-17T13:00:37.868Z,1.77
2018-08-17T13:03:06.506Z,3.08
2018-08-17T13:05:35.108Z,3.08
2018-08-17T13:08:03.622Z,3.30
2018-08-17T13:10:32.117Z,2.98
2018-08-17T13:13:07.635Z,1.80
2018-08-17T13:15:36.829Z,2.00
2018-08-17T13:18:14.380Z,1.60
2018-08-17T13:20:42.944Z,3.00
2018-08-17T13:23:11.515Z,2.20
2018-08-17T13:25:40.620Z,2.10
2018-08-17T13:28:09.388Z,2.30
2018-08-17T13:30:37.889Z,1.70
2018-08-17T13:33:06.563Z,1.50
2018-08-17T13:35:35.094Z,2.27
2018-08-17T13:38:03.954Z,2.02
2018-08-17T13:40:32.460Z,1.87
2018-08-17T13:43:00.951Z,1.92
2018-08-17T13:45:29.431Z,2.58
2018-08-17T13:47:57.885Z,1.65
2018-08-17T13:50:26.326Z,1.60
2018-08-17T13:52:55.081Z,1.52
2018-08-17T13:55:23.561Z,1.65
2018-08-17T13:57:52.123Z,2.20
2018-08-17T14:00:20.577Z,1.85
2018-08-17T14:02:49.062Z,2.42
2018-08-17T14:05:17.510Z,3.08
2018-08-17T14:07:45.969Z,2.08
2018-08-17T14:10:14.489Z,1.60
2018-08-17T14:12:43.003Z,1.50
2018-08-17T14:15:11.515Z,1.98
2018-08-17T14:17:39.995Z,1.40
2018-08-17T14:20:13.977Z,2.58
2018-08-17T14:22:42.578Z,2.83
2018-08-17T14:25:11.591Z,1.67
2018-08-17T14:27:40.053Z,2.95
2018-08-17T14:30:17.509Z,3.22
2018-08-17T14:32:46.018Z,2.30
2018-08-17T14:35:14.970Z,1.60
2018-08-17T14:37:43.427Z,1.62
2018-08-17T14:40:11.924Z,1.85
2018-08-17T14:42:40.893Z,2.05
2018-08-17T14:45:09.996Z,1.60
2018-08-17T14:47:38.669Z,1.37
2018-08-17T14:50:09.145Z,4.25
2018-08-17T14:52:37.697Z,3.72
2018-08-17T14:55:06.489Z,1.82
2018-08-17T14:57:34.966Z,1.72
2018-08-17T15:00:03.477Z,1.57
2018-08-17T15:02:31.946Z,1.45
2018-08-17T15:05:00.379Z,2.35
2018-08-17T15:07:28.919Z,2.27
2018-08-17T15:09:57.457Z,3.60
2018-08-17T15:12:25.943Z,3.65
2018-08-17T15:14:54.404Z,1.55
2018-08-17T15:17:22.900Z,1.62
2018-08-17T15:19:51.396Z,1.40
2018-08-17T15:22:19.891Z,3.12
2018-08-17T15:24:48.368Z,1.60
2018-08-17T15:27:16.864Z,1.92
2018-08-17T15:29:45.344Z,1.98
2018-08-17T15:32:13.828Z,1.85
2018-08-17T15:34:42.278Z,1.70
2018-08-17T15:37:10.773Z,1.92
2018-08-17T15:39:39.253Z,3.05
2018-08-17T15:42:08.671Z,2.70
2018-08-17T15:44:37.206Z,1.85
2018-08-17T15:47:05.751Z,2.00
2018-08-17T15:49:35.302Z,1.70
2018-08-17T15:52:05.070Z,3.80
2018-08-17T15:54:33.530Z,1.77
2018-08-17T15:57:02.011Z,2.17
2018-08-17T15:59:30.514Z,5.03
2018-08-17T16:01:59.020Z,2.17
2018-08-17T16:04:27.791Z,2.40
2018-08-17T16:06:56.352Z,2.42
2018-08-17T16:09:24.855Z,3.80
2018-08-17T16:11:53.332Z,2.50
2018-08-17T16:14:21.814Z,2.47
2018-08-17T16:16:50.303Z,1.72
2018-08-17T16:19:18.795Z,2.60
2018-08-17T16:21:47.277Z,1.77
2018-08-17T16:24:15.738Z,2.60
2018-08-17T16:26:44.226Z,2.35
2018-08-17T16:29:12.843Z,4.90
2018-08-17T16:31:42.481Z,4.67
2018-08-17T16:34:11.216Z,2.65
2018-08-17T16:36:42.001Z,2.75
2018-08-17T16:39:14.133Z,2.25
2018-08-17T16:41:42.781Z,4.25
2018-08-17T16:44:11.575Z,4.47
2018-08-17T16:46:41.089Z,4.83
2018-08-17T16:49:09.701Z,3.30
2018-08-17T16:51:38.355Z,3.95
2018-08-17T16:54:06.875Z,2.22
2018-08-17T16:56:35.677Z,3.47
2018-08-17T16:59:04.182Z,3.42
2018-08-17T17:01:32.741Z,2.80
2018-08-17T17:04:01.249Z,4.12
2018-08-17T17:06:29.821Z,6.45
2018-08-17T17:09:00.133Z,5.90
2018-08-17T17:11:29.224Z,8.48
2018-08-17T17:13:57.783Z,12.18
2018-08-17T17:16:34.593Z,8.05
2018-08-17T17:19:03.229Z,13.22
2018-08-17T17:21:31.666Z,16.00
2018-08-17T17:24:00.467Z,12.25
2018-08-17T17:26:28.913Z,6.33
2018-08-17T17:28:57.361Z,8.08
2018-08-17T17:31:25.912Z,6.78
2018-08-17T17:33:54.541Z,6.83
2018-08-17T17:36:23.061Z,7.47
2018-08-17T17:38:51.520Z,8.30
2018-08-17T17:41:20.056Z,6.08
2018-08-17T17:43:48.593Z,7.78
2018-08-17T17:46:17.072Z,8.15
2018-08-17T17:48:45.566Z,4.58
2018-08-17T17:51:14.022Z,6.08
2018-08-17T17:53:42.461Z,7.42
2018-08-17T17:56:11.061Z,7.20
2018-08-17T17:58:39.499Z,7.05
2018-08-17T18:01:09.095Z,6.22
2018-08-17T18:03:38.082Z,5.80
2018-08-17T18:06:07.894Z,6.22
2018-08-17T18:08:36.394Z,5.28
2018-08-17T18:11:04.933Z,8.28
2018-08-17T18:13:33.409Z,5.97
2018-08-17T18:16:01.861Z,5.78
2018-08-17T18:18:30.434Z,9.33
2018-08-17T18:20:58.986Z,6.15
2018-08-17T18:23:27.468Z,4.03
2018-08-17T18:25:55.938Z,5.35
2018-08-17T18:28:24.375Z,5.53
2018-08-17T18:30:52.993Z,4.75
2018-08-17T18:33:21.418Z,3.05
2018-08-17T18:35:49.889Z,10.90
2018-08-17T18:38:18.358Z,7.17
2018-08-17T18:40:46.881Z,8.08
2018-08-17T18:43:15.341Z,4.70
2018-08-17T18:45:43.810Z,2.30
2018-08-17T18:48:12.364Z,2.45
2018-08-17T18:50:41.282Z,2.52
2018-08-17T18:53:10.301Z,3.25
2018-08-17T18:55:38.864Z,5.45
2018-08-17T18:58:07.359Z,5.60
2018-08-17T19:00:35.993Z,2.72
2018-08-17T19:03:04.535Z,3.92
2018-08-17T19:05:33.066Z,2.20
2018-08-17T19:08:01.749Z,2.37
2018-08-17T19:10:30.882Z,2.12
2018-08-17T19:12:59.426Z,2.77
2018-08-17T19:15:28.816Z,3.92
2018-08-17T19:17:58.107Z,2.70
2018-08-17T19:20:26.645Z,4.60
2018-08-17T19:22:55.322Z,5.03
2018-08-17T19:25:24.560Z,3.43
2018-08-17T19:27:53.090Z,2.52
2018-08-17T19:30:33.394Z,2.93
2018-08-17T19:33:08.776Z,4.87
2018-08-17T19:35:37.536Z,4.45
2018-08-17T19:38:06.294Z,3.80
2018-08-17T19:40:35.138Z,2.50
2018-08-17T19:43:04.350Z,2.30
2018-08-17T19:45:33.042Z,4.30
2018-08-17T19:48:01.593Z,2.40
2018-08-17T19:50:30.421Z,2.83
2018-08-17T19:52:59.031Z,2.30
2018-08-17T19:55:27.655Z,3.83
2018-08-17T19:57:56.165Z,5.22
2018-08-17T20:00:24.700Z,6.57
2018-08-17T20:02:53.193Z,6.83
2018-08-17T20:05:22.019Z,4.20
2018-08-17T20:07:50.626Z,3.97
2018-08-17T20:10:19.233Z,2.97
2018-08-17T20:12:47.807Z,2.70
2018-08-17T20:15:16.401Z,4.13
2018-08-17T20:17:50.341Z,3.60
2018-08-17T20:20:19.386Z,2.70
2018-08-17T20:22:48.212Z,3.80
2018-08-17T20:25:17.699Z,4.30
2018-08-17T20:27:46.772Z,4.47
2018-08-17T20:30:23.366Z,2.30
2018-08-17T20:32:52.120Z,2.60
2018-08-17T20:35:20.717Z,2.33
2018-08-17T20:37:51.829Z,2.80
2018-08-17T20:40:20.643Z,2.67
2018-08-17T20:42:49.495Z,4.00
2018-08-17T20:45:18.146Z,2.73
2018-08-17T20:47:46.644Z,2.57
2018-08-17T20:50:18.580Z,2.77
2018-08-17T20:52:58.819Z,3.13
2018-08-17T20:55:27.363Z,2.80
2018-08-17T20:57:56.826Z,3.33
2018-08-17T21:00:26.740Z,3.00
2018-08-17T21:02:55.497Z,2.73
2018-08-17T21:05:24.078Z,3.57
2018-08-17T21:07:52.523Z,2.70
2018-08-17T21:10:21.076Z,4.10
2018-08-17T21:12:49.932Z,5.20
2018-08-17T21:15:18.726Z,4.57
2018-08-17T21:17:47.706Z,3.20
2018-08-17T21:20:16.166Z,3.50
2018-08-17T21:22:44.970Z,3.53
2018-08-17T21:25:13.454Z,3.67
2018-08-17T21:27:41.892Z,6.60
2018-08-17T21:30:10.858Z,3.03
2018-08-17T21:32:39.303Z,4.47
2018-08-17T21:35:08.432Z,7.13
2018-08-17T21:37:37.304Z,4.77
2018-08-17T21:40:08.000Z,5.27
2018-08-17T21:42:36.444Z,3.67
2018-08-17T21:45:05.219Z,3.33
2018-08-17T21:47:33.717Z,4.47
2018-08-17T21:50:08.360Z,4.73
2018-08-17T21:52:36.919Z,4.30
2018-08-17T21:55:05.480Z,4.17
2018-08-17T21:57:33.952Z,3.60
2018-08-17T22:00:02.546Z,3.63
2018-08-17T22:02:31.052Z,3.83
2018-08-17T22:04:59.561Z,3.33
2018-08-17T22:07:30.931Z,4.20
2018-08-17T22:09:59.517Z,4.87
2018-08-17T22:12:28.041Z,5.00
2018-08-17T22:14:56.514Z,4.30
2018-08-17T22:17:33.098Z,5.37
2018-08-17T22:20:02.073Z,3.80
2018-08-17T22:22:30.561Z,5.77
2018-08-17T22:24:59.689Z,4.37
2018-08-17T22:27:29.109Z,4.43
2018-08-17T22:29:58.587Z,4.10
2018-08-17T22:32:27.033Z,6.83
2018-08-17T22:34:55.885Z,4.23
2018-08-17T22:37:24.359Z,5.00
2018-08-17T22:39:52.857Z,4.50
2018-08-17T22:42:22.651Z,4.90
2018-08-17T22:44:51.258Z,5.23
2018-08-17T22:47:24.035Z,5.47
2018-08-17T22:49:53.609Z,6.57
2018-08-17T22:52:22.096Z,5.90
2018-08-17T22:54:55.562Z,4.97
2018-08-17T22:57:24.260Z,8.03
2018-08-17T23:00:11.050Z,4.90
2018-08-17T23:02:40.493Z,5.37
2018-08-17T23:05:10.552Z,4.60
2018-08-17T23:07:39.172Z,4.90
2018-08-17T23:10:10.718Z,6.87
2018-08-17T23:12:39.181Z,5.50
2018-08-17T23:15:09.457Z,5.40
2018-08-17T23:17:38.382Z,7.53
2018-08-17T23:20:07.366Z,5.00
2018-08-17T23:22:51.853Z,6.00
2018-08-17T23:25:20.384Z,5.33
2018-08-17T23:27:49.527Z,5.80
2018-08-17T23:30:18.116Z,4.83
2018-08-17T23:32:46.935Z,6.43
2018-08-17T23:35:15.410Z,4.70
2018-08-17T23:37:44.063Z,5.60
2018-08-17T23:40:12.561Z,5.57
2018-08-17T23:42:41.100Z,6.70
2018-08-17T23:45:11.139Z,4.83
2018-08-17T23:47:39.780Z,4.97
2018-08-17T23:50:09.520Z,5.27
2018-08-17T23:52:38.030Z,6.27
2018-08-17T23:55:07.557Z,6.03
2018-08-17T23:57:36.165Z,6.70
